Aeroporto :
LOGIN :

Iscrizione | Disclaimer

   EN    FR    IT 

 










Sommario :    VFR   VFR Marginale   IFR   IFR Intensivo   IFR Molto Intensivo
Visibilità : 
Base nubi : 
>= 8 km
>= 3000ft
5 / 8 km
1000 / 3000 ft
1500m / 5 km
500 / 1000 ft
800 / 1500m
200 / 500 ft
< 800m
< 200 ft
Simboli :   Temporali  Nebbia  Neve Forte  Precipitazioni Forti  Vento > 20 kt
SIGMETs :   Varie  Temporali  Ghiacco  Turbolenza  Onda orograficha  Ceneri Vulcaniche






- Altitudine del aeroporto : 1197 ft
- Codice IATA : SPM


ETAD - Spangdahlem Ab

ULTIMO METAR :
  • 050716Z 21012G20KT 6000 -RA BR BKN005 OVC011 05/M00 A2954 RMK AO2A RAB16 SLP003 FZRANO $

METARs OBSOLETI :
  • 050710Z 21014G19KT 6000 BR BKN005 OVC011 05/M00 A2954 RMK AO2A SLP003 FZRANO $
  • 050655Z 21012KT 6000 SCT004 BKN006 OVC011 05/M00 A2953 RMK AO2A SLP000 T00471005 FZRANO $
  • 050610Z 20012KT 9999 SCT004 BKN006 OVC014 05/M00 A2953 RMK AO2A CIG 006V008 SLP000 FZRANO $
  • 050548Z 20012KT 9999 SCT004 BKN008 OVC013 05/M00 A2952 RMK AO2A RAB02E18 CIG 005V008 CIG 006 RWY22 SLP996 FZRANO $
  • 050533Z 21012KT 9999 BKN007 OVC010 05/M00 A2952 RMK AO2A RAB02E18 CIG 005V007 CIG 005 RWY22 SLP996 FZRANO $
  • 050502Z 20013G19KT 9999 -RA BKN005 OVC011 05/M00 A2952 RMK AO2A RAB02 CIG 005V007 SLP996 FZRANO $
  • 050455Z 20011KT 9999 BKN007 OVC011 05/M00 A2952 RMK AO2A RAB11E19RAB24E53 SLP996 P0000 T00481002 FZRANO $
  • 050424Z AUTO 20012KT 9999 -RA OVC009 05/M00 A2951 RMK AO2 RAB11E19RAB24 CIG 007V009 OVC V BKN CIG 007 RWY22 SLP994 FZRANO $
  • 050410Z AUTO 21014G19KT 9999 BKN007 OVC013 05/M00 A2951 RMK AO2 CIG 006 RWY22 SLP994 FZRANO $
  • 050355Z AUTO 20014KT 9999 OVC005 05/00 A2950 RMK AO2 RAB20E35 OVC V BKN SLP990 P0000 T00490001 FZRANO $

TAF TAF ETAD
Valido dal 05 a 05 ore il 06 a 11 ore UTC


050500Z 0505/0611 21012G18KT 9000 -SHRA BR BKN005 OVC009 620206 QNH2952INS
BECMG 0506/0507 20012G18KT 5000 -RA BKN004 OVC009 620206 QNH2953INS
TEMPO 0507/0513 3200 -RA BKN003 OVC005
BECMG 0512/0513 21012G18KT 6000 -RA BKN003 OVC005 620206 QNH2956INS
BECMG 0518/0519 26006KT 9000 BR OVC003 QNH2965INS
BECMG 0600/0601 26006KT 9999 NSW FEW003 OVC011 QNH2976INS TX05/0505Z TN01/0605Z



MetMap, La meteo Aeronautica in un colpo d'occhio ! - Copyright ORBIFLY Dicembre 2007 - Disclaimer

ORBIFLY MET'MAP TEAM :

Programmazione e sviluppo : Alexandra Zaïnal
Concezione : Baudouin d'Aumeries
Supporto tecnico e logistico : Manuel Goepfert
Aiuto : Marc-Olivier Méhu
Aiuto per la traduzione : Arnaldo La Scala




FONTI E CREDITI :

   NOAA